YBUY weather

Bunyan Airfield
New South Wales, Australia

Public forecast

Using degrees Celsius for public forecast. Weather courtesy of forecast.io.

Closest aviation weather report (METAR) to Bunyan Airfield

Closest report is Cooma Snowy Mountains Airport, 12.6 nm (23.3 km) SW. Retrieved 2020/02/27 18:00 UTC (27 minutes ago):

YCOM 271800Z AUTO 00000KT 1900 // OVC001 09/09 Q1010

Closest aviation forecast (TAF) to Bunyan Airfield

Closest forecast is Canberra International Airport, 49.8 nm (92.2 km) N. Retrieved 2020/02/27 18:17 UTC (10 minutes ago):

TAF YSCB 271748Z 2718/2818 VRB03KT CAVOK BECMG 2800/2802 02010KT CAVOK BECMG 2807/2809 08014KT 9999 SCT025 FM281200 08008KT 9999 SCT010 TEMPO 2814/2818 9999 BKN010